< < Back
Terminal Aerodrome Forecast


Current Version              Previous Versions:   1  2  3  4  5  6  7  8  9  

Terminal Aerodrome Forecast

215
FTUS42 KTAE 281720
TAFABY
TAF
KABY 281720Z 2818/2918 28012KT P6SM FEW040
     FM290500 VRB04KT P6SM FEW250
     FM291600 25007KT P6SM SKC=

Latest METAR

176
SAUS70 KWBC 291000 RRF
MTRABY
METAR KABY 290953Z AUTO 22003KT 10SM CLR 24/23 A3004 RMK AO2 SLP171
T02440228


USA.gov is the U.S. government's official web portal to all federal, state and local government web resources and services.